Auburn, Missouri
Current Conditions -  °F | °C
As of 12:22 PM on Thursday 27 Nov 2014 (Local Time) from KSET Reporting Station
Broken Clouds Broken Clouds  
Wind Chill: 22°   Ceiling: 2900
Heat Index: 32°   Visibility: 10mi
Dew Point: 23°   Wind: 15mph
Humidity: 69%   Direction: 310°NW
Pressure: 30.47"   Gusts: NA
Location:  39.1646°N, 90.8436°W
Report Text: KSET 271822Z AUTO 31013KT 10SM BKN029 00/M05 A3047 RMK AO2 T00001050
Loading
Personal Weather Stations






























Interactive Weather Map New forecast layout! Learn more

10-Day Weather Forecast

Advertisements
Track Severe Weather on mobile